sensor_id;sensor_type;location;lat;lon;timestamp;pressure;altitude;pressure_sealevel;temperature;humidity
75438;BME280;64015;49.392;15.582;2024-02-21T00:02:11;96474.75;;;4.28;100.00
75438;BME280;64015;49.392;15.582;2024-02-21T00:04:37;96462.78;;;4.14;100.00
75438;BME280;64015;49.392;15.582;2024-02-21T00:07:04;96468.03;;;4.14;100.00
75438;BME280;64015;49.392;15.582;2024-02-21T00:09:30;96447.94;;;4.08;100.00
75438;BME280;64015;49.392;15.582;2024-02-21T00:11:56;96449.56;;;4.09;100.00
75438;BME280;64015;49.392;15.582;2024-02-21T00:14:22;96447.59;;;4.04;100.00
75438;BME280;64015;49.392;15.582;2024-02-21T00:16:48;96441.97;;;4.01;100.00
75438;BME280;64015;49.392;15.582;2024-02-21T00:19:14;96449.19;;;4.05;100.00
75438;BME280;64015;49.392;15.582;2024-02-21T00:21:45;96432.78;;;3.98;100.00
75438;BME280;64015;49.392;15.582;2024-02-21T00:24:11;96458.38;;;4.08;100.00
75438;BME280;64015;49.392;15.582;2024-02-21T00:26:37;96428.31;;;3.99;100.00
75438;BME280;64015;49.392;15.582;2024-02-21T00:29:09;96431.53;;;4.01;100.00
75438;BME280;64015;49.392;15.582;2024-02-21T00:31:35;96433.72;;;4.04;100.00
75438;BME280;64015;49.392;15.582;2024-02-21T00:34:01;96454.16;;;4.13;100.00
75438;BME280;64015;49.392;15.582;2024-02-21T00:36:26;96440.72;;;4.10;100.00
75438;BME280;64015;49.392;15.582;2024-02-21T00:39:07;96439.72;;;4.11;100.00
75438;BME280;64015;49.392;15.582;2024-02-21T00:41:40;96434.91;;;4.08;100.00
75438;BME280;64015;49.392;15.582;2024-02-21T00:44:06;96433.06;;;4.15;100.00
75438;BME280;64015;49.392;15.582;2024-02-21T00:46:32;96440.69;;;4.17;100.00
75438;BME280;64015;49.392;15.582;2024-02-21T00:49:18;96437.69;;;4.13;100.00
75438;BME280;64015;49.392;15.582;2024-02-21T00:51:49;96426.69;;;4.04;100.00
75438;BME280;64015;49.392;15.582;2024-02-21T00:54:15;96436.91;;;4.12;100.00
75438;BME280;64015;49.392;15.582;2024-02-21T00:56:42;96414.88;;;4.02;100.00
75438;BME280;64015;49.392;15.582;2024-02-21T00:59:08;96424.00;;;4.18;100.00
75438;BME280;64015;49.392;15.582;2024-02-21T01:01:39;96422.63;;;4.15;100.00
75438;BME280;64015;49.392;15.582;2024-02-21T01:04:09;96413.00;;;4.16;100.00
75438;BME280;64015;49.392;15.582;2024-02-21T01:06:49;96414.41;;;4.11;100.00
75438;BME280;64015;49.392;15.582;2024-02-21T01:09:15;96412.38;;;4.13;100.00
75438;BME280;64015;49.392;15.582;2024-02-21T01:12:13;96392.94;;;4.09;100.00
75438;BME280;64015;49.392;15.582;2024-02-21T01:14:44;96402.81;;;4.07;100.00
75438;BME280;64015;49.392;15.582;2024-02-21T01:17:12;96398.59;;;4.06;100.00
75438;BME280;64015;49.392;15.582;2024-02-21T01:19:37;96397.19;;;4.04;100.00
75438;BME280;64015;49.392;15.582;2024-02-21T01:22:31;96399.41;;;4.00;100.00
75438;BME280;64015;49.392;15.582;2024-02-21T01:24:57;96407.03;;;4.02;100.00
75438;BME280;64015;49.392;15.582;2024-02-21T01:27:23;96396.63;;;3.95;100.00
75438;BME280;64015;49.392;15.582;2024-02-21T01:29:49;96400.06;;;3.96;100.00
75438;BME280;64015;49.392;15.582;2024-02-21T01:32:33;96395.09;;;3.88;100.00
75438;BME280;64015;49.392;15.582;2024-02-21T01:38:14;96389.50;;;3.78;100.00
75438;BME280;64015;49.392;15.582;2024-02-21T01:43:20;96373.66;;;3.72;100.00
75438;BME280;64015;49.392;15.582;2024-02-21T01:45:53;96390.31;;;3.78;100.00
75438;BME280;64015;49.392;15.582;2024-02-21T01:48:23;96374.66;;;3.71;100.00
75438;BME280;64015;49.392;15.582;2024-02-21T01:50:51;96382.28;;;3.80;100.00
75438;BME280;64015;49.392;15.582;2024-02-21T01:53:55;96374.66;;;3.78;100.00
75438;BME280;64015;49.392;15.582;2024-02-21T01:57:09;96386.25;;;3.89;100.00
75438;BME280;64015;49.392;15.582;2024-02-21T01:59:39;96373.81;;;3.84;100.00
75438;BME280;64015;49.392;15.582;2024-02-21T02:02:07;96375.22;;;3.87;100.00
75438;BME280;64015;49.392;15.582;2024-02-21T02:04:37;96376.47;;;3.78;100.00
75438;BME280;64015;49.392;15.582;2024-02-21T02:07:19;96362.31;;;3.60;100.00
75438;BME280;64015;49.392;15.582;2024-02-21T02:10:51;96382.50;;;3.71;100.00
75438;BME280;64015;49.392;15.582;2024-02-21T02:18:23;96352.16;;;3.39;100.00
75438;BME280;64015;49.392;15.582;2024-02-21T02:20:49;96353.78;;;3.40;100.00
75438;BME280;64015;49.392;15.582;2024-02-21T02:23:31;96349.81;;;3.31;100.00
75438;BME280;64015;49.392;15.582;2024-02-21T02:25:58;96344.81;;;3.23;100.00
75438;BME280;64015;49.392;15.582;2024-02-21T02:28:24;96329.22;;;3.10;100.00
75438;BME280;64015;49.392;15.582;2024-02-21T02:30:50;96330.22;;;3.09;100.00
75438;BME280;64015;49.392;15.582;2024-02-21T02:36:41;96342.03;;;3.18;100.00
75438;BME280;64015;49.392;15.582;2024-02-21T02:39:22;96329.81;;;3.12;100.00
75438;BME280;64015;49.392;15.582;2024-02-21T02:41:48;96331.63;;;3.11;100.00
75438;BME280;64015;49.392;15.582;2024-02-21T02:44:19;96322.59;;;3.14;100.00
75438;BME280;64015;49.392;15.582;2024-02-21T02:46:51;96333.78;;;3.21;100.00
75438;BME280;64015;49.392;15.582;2024-02-21T02:49:33;96321.41;;;3.10;100.00
75438;BME280;64015;49.392;15.582;2024-02-21T02:52:00;96340.00;;;3.20;100.00
75438;BME280;64015;49.392;15.582;2024-02-21T02:54:31;96325.78;;;3.16;100.00
75438;BME280;64015;49.392;15.582;2024-02-21T02:57:06;96331.44;;;3.13;100.00
75438;BME280;64015;49.392;15.582;2024-02-21T02:59:32;96328.97;;;3.24;100.00
75438;BME280;64015;49.392;15.582;2024-02-21T03:01:58;96314.34;;;3.17;100.00
75438;BME280;64015;49.392;15.582;2024-02-21T03:04:24;96322.97;;;3.24;100.00
75438;BME280;64015;49.392;15.582;2024-02-21T03:06:52;96324.34;;;3.26;100.00
75438;BME280;64015;49.392;15.582;2024-02-21T03:09:24;96313.09;;;3.26;100.00
75438;BME280;64015;49.392;15.582;2024-02-21T03:11:50;96321.13;;;3.31;100.00
75438;BME280;64015;49.392;15.582;2024-02-21T03:14:28;96310.69;;;3.31;100.00
75438;BME280;64015;49.392;15.582;2024-02-21T03:16:55;96326.84;;;3.46;100.00
75438;BME280;64015;49.392;15.582;2024-02-21T03:19:21;96307.84;;;3.39;100.00
75438;BME280;64015;49.392;15.582;2024-02-21T03:21:46;96319.44;;;3.43;100.00
75438;BME280;64015;49.392;15.582;2024-02-21T03:24:12;96322.25;;;3.48;100.00
75438;BME280;64015;49.392;15.582;2024-02-21T03:26:38;96305.84;;;3.41;100.00
75438;BME280;64015;49.392;15.582;2024-02-21T03:29:04;96311.97;;;3.53;100.00
75438;BME280;64015;49.392;15.582;2024-02-21T03:31:32;96317.72;;;3.62;100.00
75438;BME280;64015;49.392;15.582;2024-02-21T03:34:16;96298.56;;;3.50;100.00
75438;BME280;64015;49.392;15.582;2024-02-21T03:36:48;96311.16;;;3.59;100.00
75438;BME280;64015;49.392;15.582;2024-02-21T03:39:15;96299.91;;;3.59;100.00
75438;BME280;64015;49.392;15.582;2024-02-21T03:41:41;96316.25;;;3.72;100.00
75438;BME280;64015;49.392;15.582;2024-02-21T03:44:07;96322.28;;;3.73;100.00
75438;BME280;64015;49.392;15.582;2024-02-21T03:46:32;96309.69;;;3.63;100.00
75438;BME280;64015;49.392;15.582;2024-02-21T03:48:58;96301.31;;;3.61;100.00
75438;BME280;64015;49.392;15.582;2024-02-21T03:51:24;96311.91;;;3.66;100.00
75438;BME280;64015;49.392;15.582;2024-02-21T03:53:49;96312.06;;;3.71;100.00
75438;BME280;64015;49.392;15.582;2024-02-21T03:56:15;96313.09;;;3.70;100.00
75438;BME280;64015;49.392;15.582;2024-02-21T03:58:41;96297.09;;;3.60;100.00
75438;BME280;64015;49.392;15.582;2024-02-21T04:01:07;96286.47;;;3.55;100.00
75438;BME280;64015;49.392;15.582;2024-02-21T04:03:33;96301.50;;;3.60;100.00
75438;BME280;64015;49.392;15.582;2024-02-21T04:05:58;96295.75;;;3.51;100.00
75438;BME280;64015;49.392;15.582;2024-02-21T04:08:25;96280.56;;;3.35;100.00
75438;BME280;64015;49.392;15.582;2024-02-21T04:10:54;96279.81;;;3.28;100.00
75438;BME280;64015;49.392;15.582;2024-02-21T04:13:22;96286.97;;;3.39;100.00
75438;BME280;64015;49.392;15.582;2024-02-21T04:15:48;96295.19;;;3.43;100.00
75438;BME280;64015;49.392;15.582;2024-02-21T04:18:14;96278.97;;;3.34;100.00
75438;BME280;64015;49.392;15.582;2024-02-21T04:20:40;96265.78;;;3.29;100.00
75438;BME280;64015;49.392;15.582;2024-02-21T04:23:21;96268.59;;;3.27;100.00
75438;BME280;64015;49.392;15.582;2024-02-21T04:25:49;96273.59;;;3.29;100.00
75438;BME280;64015;49.392;15.582;2024-02-21T04:28:15;96260.16;;;3.25;100.00
75438;BME280;64015;49.392;15.582;2024-02-21T04:30:41;96269.03;;;3.24;100.00
75438;BME280;64015;49.392;15.582;2024-02-21T04:33:06;96267.41;;;3.23;100.00
75438;BME280;64015;49.392;15.582;2024-02-21T04:35:32;96268.22;;;3.17;100.00
75438;BME280;64015;49.392;15.582;2024-02-21T04:37:58;96274.63;;;3.21;100.00
75438;BME280;64015;49.392;15.582;2024-02-21T04:40:30;96251.03;;;3.10;100.00
75438;BME280;64015;49.392;15.582;2024-02-21T04:42:57;96264.25;;;3.15;100.00
75438;BME280;64015;49.392;15.582;2024-02-21T04:45:23;96258.66;;;3.11;100.00
75438;BME280;64015;49.392;15.582;2024-02-21T04:48:04;96246.22;;;3.07;100.00
75438;BME280;64015;49.392;15.582;2024-02-21T04:50:30;96252.22;;;3.14;100.00
75438;BME280;64015;49.392;15.582;2024-02-21T04:53:13;96257.66;;;3.12;100.00
75438;BME280;64015;49.392;15.582;2024-02-21T04:55:39;96260.44;;;3.11;100.00
75438;BME280;64015;49.392;15.582;2024-02-21T05:01:46;96240.66;;;3.03;100.00
75438;BME280;64015;49.392;15.582;2024-02-21T05:04:12;96243.41;;;3.08;100.00
75438;BME280;64015;49.392;15.582;2024-02-21T05:06:43;96258.44;;;3.13;100.00
75438;BME280;64015;49.392;15.582;2024-02-21T05:09:09;96257.81;;;3.17;100.00
75438;BME280;64015;49.392;15.582;2024-02-21T05:11:36;96243.00;;;3.11;100.00
75438;BME280;64015;49.392;15.582;2024-02-21T05:14:02;96251.22;;;3.15;100.00
75438;BME280;64015;49.392;15.582;2024-02-21T05:16:29;96248.03;;;3.13;100.00
75438;BME280;64015;49.392;15.582;2024-02-21T05:19:04;96239.75;;;3.16;100.00
75438;BME280;64015;49.392;15.582;2024-02-21T05:21:30;96250.38;;;3.21;100.00
75438;BME280;64015;49.392;15.582;2024-02-21T05:23:56;96244.22;;;3.09;100.00
75438;BME280;64015;49.392;15.582;2024-02-21T05:26:25;96237.41;;;3.08;100.00
75438;BME280;64015;49.392;15.582;2024-02-21T05:28:51;96244.78;;;3.17;100.00
75438;BME280;64015;49.392;15.582;2024-02-21T05:31:18;96258.78;;;3.23;100.00
75438;BME280;64015;49.392;15.582;2024-02-21T05:33:48;96230.59;;;3.07;100.00
75438;BME280;64015;49.392;15.582;2024-02-21T05:36:13;96236.41;;;3.09;100.00
75438;BME280;64015;49.392;15.582;2024-02-21T05:38:39;96247.97;;;3.19;100.00
75438;BME280;64015;49.392;15.582;2024-02-21T05:41:05;96235.38;;;3.10;100.00
75438;BME280;64015;49.392;15.582;2024-02-21T05:43:31;96234.59;;;3.09;100.00
75438;BME280;64015;49.392;15.582;2024-02-21T05:45:57;96239.59;;;3.11;100.00
75438;BME280;64015;49.392;15.582;2024-02-21T05:48:24;96233.78;;;3.09;100.00
75438;BME280;64015;49.392;15.582;2024-02-21T05:50:50;96246.31;;;3.25;100.00
75438;BME280;64015;49.392;15.582;2024-02-21T05:53:16;96239.75;;;3.22;100.00
75438;BME280;64015;49.392;15.582;2024-02-21T05:55:42;96227.31;;;3.18;100.00
75438;BME280;64015;49.392;15.582;2024-02-21T05:58:08;96236.13;;;3.23;100.00
75438;BME280;64015;49.392;15.582;2024-02-21T06:01:07;96235.69;;;3.26;100.00
75438;BME280;64015;49.392;15.582;2024-02-21T06:03:35;96229.69;;;3.26;100.00
75438;BME280;64015;49.392;15.582;2024-02-21T06:06:02;96235.69;;;3.33;100.00
75438;BME280;64015;49.392;15.582;2024-02-21T06:08:28;96223.66;;;3.32;100.00
75438;BME280;64015;49.392;15.582;2024-02-21T06:11:06;96239.25;;;3.38;100.00
75438;BME280;64015;49.392;15.582;2024-02-21T06:13:37;96243.59;;;3.45;100.00
75438;BME280;64015;49.392;15.582;2024-02-21T06:16:04;96255.44;;;3.47;100.00
75438;BME280;64015;49.392;15.582;2024-02-21T06:18:31;96232.81;;;3.41;100.00
75438;BME280;64015;49.392;15.582;2024-02-21T06:20:56;96228.81;;;3.38;100.00
75438;BME280;64015;49.392;15.582;2024-02-21T06:23:25;96226.59;;;3.42;100.00
75438;BME280;64015;49.392;15.582;2024-02-21T06:25:50;96239.94;;;3.52;100.00
75438;BME280;64015;49.392;15.582;2024-02-21T06:28:19;96222.38;;;3.41;100.00
75438;BME280;64015;49.392;15.582;2024-02-21T06:30:51;96231.38;;;3.45;100.00
75438;BME280;64015;49.392;15.582;2024-02-21T06:33:17;96220.34;;;3.43;100.00
75438;BME280;64015;49.392;15.582;2024-02-21T06:35:43;96230.69;;;3.56;100.00
75438;BME280;64015;49.392;15.582;2024-02-21T06:38:12;96230.69;;;3.56;100.00
75438;BME280;64015;49.392;15.582;2024-02-21T06:40:37;96219.94;;;3.46;100.00
75438;BME280;64015;49.392;15.582;2024-02-21T06:43:05;96214.91;;;3.51;100.00
75438;BME280;64015;49.392;15.582;2024-02-21T06:45:31;96221.69;;;3.52;100.00
75438;BME280;64015;49.392;15.582;2024-02-21T06:47:57;96210.25;;;3.53;100.00
75438;BME280;64015;49.392;15.582;2024-02-21T06:50:23;96224.06;;;3.60;100.00
75438;BME280;64015;49.392;15.582;2024-02-21T06:52:49;96234.75;;;3.77;100.00
75438;BME280;64015;49.392;15.582;2024-02-21T06:55:33;96223.94;;;3.73;100.00
75438;BME280;64015;49.392;15.582;2024-02-21T06:57:59;96212.78;;;3.66;100.00
75438;BME280;64015;49.392;15.582;2024-02-21T07:00:25;96217.03;;;3.86;100.00
75438;BME280;64015;49.392;15.582;2024-02-21T07:11:01;96213.97;;;4.13;100.00
75438;BME280;64015;49.392;15.582;2024-02-21T07:17:50;96218.13;;;4.39;100.00
75438;BME280;64015;49.392;15.582;2024-02-21T07:20:22;96210.59;;;4.49;100.00
75438;BME280;64015;49.392;15.582;2024-02-21T07:22:48;96213.88;;;4.63;100.00
75438;BME280;64015;49.392;15.582;2024-02-21T07:25:13;96209.56;;;4.69;100.00
75438;BME280;64015;49.392;15.582;2024-02-21T07:27:51;96216.53;;;4.75;100.00
75438;BME280;64015;49.392;15.582;2024-02-21T07:30:19;96215.38;;;4.89;100.00
75438;BME280;64015;49.392;15.582;2024-02-21T07:32:49;96221.31;;;4.96;100.00
75438;BME280;64015;49.392;15.582;2024-02-21T07:35:15;96211.91;;;5.07;100.00
75438;BME280;64015;49.392;15.582;2024-02-21T07:37:41;96210.00;;;5.14;100.00
75438;BME280;64015;49.392;15.582;2024-02-21T07:40:12;96201.28;;;5.20;100.00
75438;BME280;64015;49.392;15.582;2024-02-21T07:42:50;96203.09;;;5.19;100.00
75438;BME280;64015;49.392;15.582;2024-02-21T07:45:16;96206.69;;;5.37;100.00
75438;BME280;64015;49.392;15.582;2024-02-21T07:47:44;96207.75;;;5.17;100.00
75438;BME280;64015;49.392;15.582;2024-02-21T07:50:10;96197.56;;;4.98;100.00
75438;BME280;64015;49.392;15.582;2024-02-21T07:52:36;96200.91;;;4.86;100.00
75438;BME280;64015;49.392;15.582;2024-02-21T07:55:01;96201.03;;;4.92;100.00
75438;BME280;64015;49.392;15.582;2024-02-21T07:57:28;96193.56;;;4.95;100.00
75438;BME280;64015;49.392;15.582;2024-02-21T07:59:54;96188.34;;;4.95;100.00
75438;BME280;64015;49.392;15.582;2024-02-21T08:02:23;96166.09;;;5.04;100.00
75438;BME280;64015;49.392;15.582;2024-02-21T08:04:48;96176.84;;;5.26;100.00
75438;BME280;64015;49.392;15.582;2024-02-21T08:07:22;96179.25;;;5.39;100.00
75438;BME280;64015;49.392;15.582;2024-02-21T08:10:07;96196.72;;;5.69;100.00
75438;BME280;64015;49.392;15.582;2024-02-21T08:12:46;96174.66;;;5.76;100.00
75438;BME280;64015;49.392;15.582;2024-02-21T08:19:17;96186.38;;;6.67;99.13
75438;BME280;64015;49.392;15.582;2024-02-21T08:21:43;96179.84;;;6.69;95.48
75438;BME280;64015;49.392;15.582;2024-02-21T08:24:09;96162.91;;;6.89;95.47
75438;BME280;64015;49.392;15.582;2024-02-21T08:26:43;96158.25;;;7.19;94.85
75438;BME280;64015;49.392;15.582;2024-02-21T08:29:10;96172.47;;;7.23;91.87
75438;BME280;64015;49.392;15.582;2024-02-21T08:31:36;96172.75;;;6.82;92.01
75438;BME280;64015;49.392;15.582;2024-02-21T08:34:14;96155.19;;;6.82;90.71
75438;BME280;64015;49.392;15.582;2024-02-21T08:36:40;96174.56;;;6.93;92.32
75438;BME280;64015;49.392;15.582;2024-02-21T08:39:06;96161.75;;;7.25;90.96
75438;BME280;64015;49.392;15.582;2024-02-21T08:41:35;96184.16;;;7.77;88.07
75438;BME280;64015;49.392;15.582;2024-02-21T08:44:01;96177.94;;;7.83;86.24
75438;BME280;64015;49.392;15.582;2024-02-21T08:46:27;96148.97;;;7.62;87.99
75438;BME280;64015;49.392;15.582;2024-02-21T08:48:56;96150.88;;;7.66;87.03
75438;BME280;64015;49.392;15.582;2024-02-21T08:51:22;96166.06;;;7.47;88.89
75438;BME280;64015;49.392;15.582;2024-02-21T08:53:48;96173.53;;;7.39;89.81
75438;BME280;64015;49.392;15.582;2024-02-21T08:56:30;96153.47;;;6.88;90.61
75438;BME280;64015;49.392;15.582;2024-02-21T08:58:55;96158.25;;;6.51;92.86
75438;BME280;64015;49.392;15.582;2024-02-21T09:01:22;96163.06;;;6.42;94.82
75438;BME280;64015;49.392;15.582;2024-02-21T09:03:48;96152.56;;;6.42;94.10
75438;BME280;64015;49.392;15.582;2024-02-21T09:06:18;96158.41;;;6.32;95.31
75438;BME280;64015;49.392;15.582;2024-02-21T09:08:45;96145.66;;;6.36;94.45
75438;BME280;64015;49.392;15.582;2024-02-21T09:11:12;96144.09;;;6.63;94.16
75438;BME280;64015;49.392;15.582;2024-02-21T09:13:37;96147.06;;;6.67;93.11
75438;BME280;64015;49.392;15.582;2024-02-21T09:16:05;96149.06;;;6.77;93.22
75438;BME280;64015;49.392;15.582;2024-02-21T09:18:37;96148.00;;;6.89;91.34
75438;BME280;64015;49.392;15.582;2024-02-21T09:21:03;96154.97;;;7.12;90.67
75438;BME280;64015;49.392;15.582;2024-02-21T09:23:29;96147.38;;;6.99;91.09
75438;BME280;64015;49.392;15.582;2024-02-21T09:25:57;96156.69;;;7.06;90.81
75438;BME280;64015;49.392;15.582;2024-02-21T09:28:26;96149.31;;;7.03;90.70
75438;BME280;64015;49.392;15.582;2024-02-21T09:31:11;96138.34;;;6.78;91.99
75438;BME280;64015;49.392;15.582;2024-02-21T09:33:40;96148.38;;;6.81;92.14
75438;BME280;64015;49.392;15.582;2024-02-21T09:36:07;96151.81;;;6.70;92.57
75438;BME280;64015;49.392;15.582;2024-02-21T09:38:34;96154.63;;;6.80;93.60
75438;BME280;64015;49.392;15.582;2024-02-21T09:41:25;96151.13;;;7.03;92.78
75438;BME280;64015;49.392;15.582;2024-02-21T09:44:03;96137.34;;;6.96;91.48
75438;BME280;64015;49.392;15.582;2024-02-21T09:46:52;96147.03;;;6.95;92.11
75438;BME280;64015;49.392;15.582;2024-02-21T09:49:30;96156.47;;;7.08;91.78
75438;BME280;64015;49.392;15.582;2024-02-21T09:52:02;96165.91;;;6.81;91.38
75438;BME280;64015;49.392;15.582;2024-02-21T09:54:29;96170.94;;;6.82;92.37
75438;BME280;64015;49.392;15.582;2024-02-21T09:56:57;96149.84;;;6.77;92.67
75438;BME280;64015;49.392;15.582;2024-02-21T09:59:24;96164.53;;;6.90;91.70
75438;BME280;64015;49.392;15.582;2024-02-21T10:02:00;96183.88;;;7.00;90.93
75438;BME280;64015;49.392;15.582;2024-02-21T10:04:40;96169.19;;;6.88;90.85
75438;BME280;64015;49.392;15.582;2024-02-21T10:07:07;96190.97;;;7.17;90.79
75438;BME280;64015;49.392;15.582;2024-02-21T10:09:45;96192.06;;;7.04;90.92
75438;BME280;64015;49.392;15.582;2024-02-21T10:12:51;96195.03;;;6.96;90.56
75438;BME280;64015;49.392;15.582;2024-02-21T10:15:28;96202.91;;;6.96;90.43
75438;BME280;64015;49.392;15.582;2024-02-21T10:18:32;96195.53;;;6.93;90.01
75438;BME280;64015;49.392;15.582;2024-02-21T10:21:24;96187.31;;;6.89;89.85
75438;BME280;64015;49.392;15.582;2024-02-21T10:23:56;96163.03;;;6.94;89.42
75438;BME280;64015;49.392;15.582;2024-02-21T10:26:23;96161.63;;;7.03;88.30
75438;BME280;64015;49.392;15.582;2024-02-21T10:28:49;96162.03;;;7.11;87.64
75438;BME280;64015;49.392;15.582;2024-02-21T10:31:25;96151.41;;;7.18;88.23
75438;BME280;64015;49.392;15.582;2024-02-21T10:33:55;96161.34;;;7.33;86.93
75438;BME280;64015;49.392;15.582;2024-02-21T10:36:22;96149.69;;;7.40;87.50
75438;BME280;64015;49.392;15.582;2024-02-21T10:41:41;96141.91;;;8.17;81.44
75438;BME280;64015;49.392;15.582;2024-02-21T10:44:10;96132.44;;;8.55;77.70
75438;BME280;64015;49.392;15.582;2024-02-21T10:46:53;96108.91;;;8.92;73.40
75438;BME280;64015;49.392;15.582;2024-02-21T10:50:03;96115.25;;;9.87;70.23
75438;BME280;64015;49.392;15.582;2024-02-21T10:52:56;96122.84;;;10.20;68.11
75438;BME280;64015;49.392;15.582;2024-02-21T11:01:44;96109.56;;;9.63;70.56
75438;BME280;64015;49.392;15.582;2024-02-21T11:04:18;96101.53;;;9.48;71.09
75438;BME280;64015;49.392;15.582;2024-02-21T11:06:52;96078.63;;;9.16;72.69
75438;BME280;64015;49.392;15.582;2024-02-21T11:10:24;96094.44;;;8.89;75.77
75438;BME280;64015;49.392;15.582;2024-02-21T11:13:09;96076.66;;;8.75;76.33
75438;BME280;64015;49.392;15.582;2024-02-21T11:16:43;96067.16;;;9.01;74.99
75438;BME280;64015;49.392;15.582;2024-02-21T11:20:49;96064.25;;;8.97;74.27
75438;BME280;64015;49.392;15.582;2024-02-21T11:30:41;96020.16;;;10.66;62.83
75438;BME280;64015;49.392;15.582;2024-02-21T11:34:03;96057.78;;;10.26;60.76
75438;BME280;64015;49.392;15.582;2024-02-21T11:36:55;96021.00;;;10.04;60.08
75438;BME280;64015;49.392;15.582;2024-02-21T11:39:44;96024.41;;;9.52;63.25
75438;BME280;64015;49.392;15.582;2024-02-21T11:42:57;96026.19;;;9.47;65.74
75438;BME280;64015;49.392;15.582;2024-02-21T11:48:07;96010.06;;;9.33;68.34
75438;BME280;64015;49.392;15.582;2024-02-21T11:51:38;96000.03;;;10.24;65.92
75438;BME280;64015;49.392;15.582;2024-02-21T11:54:52;96002.00;;;10.90;62.54
75438;BME280;64015;49.392;15.582;2024-02-21T11:58:01;96019.19;;;11.28;61.57
75438;BME280;64015;49.392;15.582;2024-02-21T12:00:30;96022.09;;;11.36;61.82
75438;BME280;64015;49.392;15.582;2024-02-21T12:03:01;96013.34;;;10.80;62.70
75438;BME280;64015;49.392;15.582;2024-02-21T12:06:09;96003.28;;;10.67;63.58
75438;BME280;64015;49.392;15.582;2024-02-21T12:08:57;96019.97;;;11.23;62.49
75438;BME280;64015;49.392;15.582;2024-02-21T12:11:45;96016.38;;;10.31;64.68
75438;BME280;64015;49.392;15.582;2024-02-21T12:14:17;96010.41;;;11.78;60.62
75438;BME280;64015;49.392;15.582;2024-02-21T12:16:51;96023.09;;;12.55;57.72
75438;BME280;64015;49.392;15.582;2024-02-21T12:19:30;96035.22;;;13.73;54.07
75438;BME280;64015;49.392;15.582;2024-02-21T12:22:38;96011.56;;;16.02;48.63
75438;BME280;64015;49.392;15.582;2024-02-21T12:26:16;96007.91;;;18.09;40.83
75438;BME280;64015;49.392;15.582;2024-02-21T12:29:20;96010.56;;;17.69;41.75
75438;BME280;64015;49.392;15.582;2024-02-21T12:32:42;95998.69;;;19.96;37.30
75438;BME280;64015;49.392;15.582;2024-02-21T12:36:17;95965.38;;;14.68;44.73
75438;BME280;64015;49.392;15.582;2024-02-21T12:40:13;95988.69;;;16.01;44.77
75438;BME280;64015;49.392;15.582;2024-02-21T12:43:51;95963.66;;;15.88;43.94
75438;BME280;64015;49.392;15.582;2024-02-21T12:47:46;95965.53;;;17.76;41.24
75438;BME280;64015;49.392;15.582;2024-02-21T12:50:50;95954.00;;;16.06;42.65
75438;BME280;64015;49.392;15.582;2024-02-21T12:54:28;95955.28;;;14.28;46.65
75438;BME280;64015;49.392;15.582;2024-02-21T12:58:02;95944.22;;;12.91;51.83
75438;BME280;64015;49.392;15.582;2024-02-21T13:01:03;95966.66;;;11.01;55.67
75438;BME280;64015;49.392;15.582;2024-02-21T13:04:16;95952.91;;;11.19;57.69
75438;BME280;64015;49.392;15.582;2024-02-21T13:07:56;95929.16;;;10.63;59.54
75438;BME280;64015;49.392;15.582;2024-02-21T13:11:12;95921.78;;;10.85;59.24
75438;BME280;64015;49.392;15.582;2024-02-21T13:14:23;95918.59;;;10.58;60.89
75438;BME280;64015;49.392;15.582;2024-02-21T13:18:12;95917.78;;;11.13;60.16
75438;BME280;64015;49.392;15.582;2024-02-21T13:21:34;95915.94;;;12.09;58.22
75438;BME280;64015;49.392;15.582;2024-02-21T13:25:36;95891.81;;;13.46;54.15
75438;BME280;64015;49.392;15.582;2024-02-21T13:29:01;95900.56;;;14.13;51.86
75438;BME280;64015;49.392;15.582;2024-02-21T13:32:39;95898.59;;;14.42;49.53
75438;BME280;64015;49.392;15.582;2024-02-21T13:36:27;95893.25;;;15.26;47.55
75438;BME280;64015;49.392;15.582;2024-02-21T13:39:31;95889.63;;;16.04;44.51
75438;BME280;64015;49.392;15.582;2024-02-21T13:42:43;95869.81;;;15.14;45.65
75438;BME280;64015;49.392;15.582;2024-02-21T13:46:07;95882.69;;;16.66;43.39
75438;BME280;64015;49.392;15.582;2024-02-21T13:49:12;95857.88;;;16.79;42.46
75438;BME280;64015;49.392;15.582;2024-02-21T13:52:21;95859.94;;;17.44;42.09
75438;BME280;64015;49.392;15.582;2024-02-21T13:55:13;95863.53;;;17.40;42.32
75438;BME280;64015;49.392;15.582;2024-02-21T13:58:16;95826.78;;;17.28;42.44
75438;BME280;64015;49.392;15.582;2024-02-21T14:01:44;95833.06;;;16.34;43.61
75438;BME280;64015;49.392;15.582;2024-02-21T14:04:18;95834.69;;;15.86;44.21
75438;BME280;64015;49.392;15.582;2024-02-21T14:07:01;95831.34;;;15.80;44.83
75438;BME280;64015;49.392;15.582;2024-02-21T14:09:52;95833.75;;;15.54;45.58
75438;BME280;64015;49.392;15.582;2024-02-21T14:12:39;95817.09;;;15.35;46.15
75438;BME280;64015;49.392;15.582;2024-02-21T14:18:24;95827.91;;;16.16;44.87
75438;BME280;64015;49.392;15.582;2024-02-21T14:21:48;95837.06;;;15.32;46.35
75438;BME280;64015;49.392;15.582;2024-02-21T14:24:53;95842.56;;;15.77;45.40
75438;BME280;64015;49.392;15.582;2024-02-21T14:28:08;95820.81;;;15.20;46.88
75438;BME280;64015;49.392;15.582;2024-02-21T14:31:15;95814.22;;;14.20;48.62
75438;BME280;64015;49.392;15.582;2024-02-21T14:34:24;95826.72;;;14.39;48.72
75438;BME280;64015;49.392;15.582;2024-02-21T14:38:21;95811.06;;;14.56;48.54
75438;BME280;64015;49.392;15.582;2024-02-21T14:50:43;95812.47;;;14.16;49.65
75438;BME280;64015;49.392;15.582;2024-02-21T14:53:22;95812.72;;;14.33;49.11
75438;BME280;64015;49.392;15.582;2024-02-21T14:55:49;95803.63;;;13.64;50.17
75438;BME280;64015;49.392;15.582;2024-02-21T14:58:18;95819.31;;;13.13;51.76
75438;BME280;64015;49.392;15.582;2024-02-21T15:00:49;95809.22;;;13.81;51.00